createdAt,value
2018-11-14T00:00:31.081Z,13.03
2018-11-14T00:03:00.796Z,13.10
2018-11-14T00:05:29.702Z,16.07
2018-11-14T00:07:59.070Z,12.07
2018-11-14T00:10:28.121Z,15.27
2018-11-14T00:13:00.614Z,11.55
2018-11-14T00:15:32.217Z,13.30
2018-11-14T00:18:01.295Z,13.60
2018-11-14T00:20:30.724Z,12.57
2018-11-14T00:23:00.456Z,12.07
2018-11-14T00:25:29.390Z,13.87
2018-11-14T00:27:58.584Z,12.70
2018-11-14T00:30:27.768Z,14.30
2018-11-14T00:32:57.416Z,13.78
2018-11-14T00:35:28.403Z,12.10
2018-11-14T00:37:57.572Z,11.67
2018-11-14T00:40:26.927Z,15.83
2018-11-14T00:42:56.778Z,10.93
2018-11-14T00:45:26.086Z,12.40
2018-11-14T00:47:56.695Z,10.18
2018-11-14T00:50:25.797Z,9.63
2018-11-14T00:52:55.185Z,10.50
2018-11-14T00:55:24.180Z,10.20
2018-11-14T00:57:53.469Z,12.00
2018-11-14T01:00:23.709Z,12.23
2018-11-14T01:02:52.905Z,11.33
2018-11-14T01:05:22.072Z,11.97
2018-11-14T01:07:51.086Z,12.90
2018-11-14T01:10:21.295Z,11.23
2018-11-14T01:12:50.875Z,15.10
2018-11-14T01:15:20.763Z,11.40
2018-11-14T01:17:50.153Z,11.90
2018-11-14T01:20:20.590Z,12.83
2018-11-14T01:22:50.094Z,12.10
2018-11-14T01:25:19.562Z,12.20
2018-11-14T01:27:48.739Z,11.97
2018-11-14T01:30:19.015Z,18.40
2018-11-14T01:32:48.495Z,12.73
2018-11-14T01:35:17.928Z,13.90
2018-11-14T01:37:46.881Z,13.43
2018-11-14T01:40:18.311Z,14.63
2018-11-14T01:42:48.506Z,43.20
2018-11-14T01:45:17.525Z,44.07
2018-11-14T01:47:53.746Z,55.73
2018-11-14T01:50:22.641Z,52.17
2018-11-14T01:52:51.663Z,35.90
2018-11-14T01:56:46.401Z,56.13
2018-11-14T01:59:14.816Z,32.47
2018-11-14T02:01:43.615Z,40.05
2018-11-14T02:04:12.172Z,35.00
2018-11-14T02:06:41.066Z,44.87
2018-11-14T02:09:10.589Z,43.83
2018-11-14T02:11:39.314Z,20.77
2018-11-14T02:14:07.936Z,32.87
2018-11-14T02:16:36.398Z,57.43
2018-11-14T02:19:05.211Z,32.83
2018-11-14T02:21:34.562Z,52.60
2018-11-14T02:24:03.439Z,34.00
2018-11-14T02:26:32.125Z,11.70
2018-11-14T02:29:01.145Z,24.10
2018-11-14T02:31:29.852Z,23.70
2018-11-14T02:33:58.538Z,47.90
2018-11-14T02:36:27.333Z,52.10
2018-11-14T02:38:55.996Z,28.63
2018-11-14T02:41:24.602Z,53.37
2018-11-14T02:43:53.408Z,29.92
2018-11-14T02:46:22.308Z,32.07
2018-11-14T02:48:50.968Z,61.10
2018-11-14T02:51:26.033Z,51.17
2018-11-14T02:53:54.928Z,53.28
2018-11-14T02:56:23.437Z,38.70
2018-11-14T02:58:52.268Z,98.90
2018-11-14T03:01:21.150Z,61.60
2018-11-14T03:03:49.839Z,71.80
2018-11-14T03:06:18.543Z,80.03
2018-11-14T03:08:47.811Z,40.20
2018-11-14T03:11:16.597Z,46.73
2018-11-14T03:13:45.190Z,27.87
2018-11-14T03:16:13.962Z,58.92
2018-11-14T03:18:42.675Z,38.60
2018-11-14T03:21:11.265Z,51.30
2018-11-14T03:23:39.913Z,40.70
2018-11-14T03:26:08.730Z,40.07
2018-11-14T03:28:37.633Z,55.83
2018-11-14T03:31:06.539Z,46.27
2018-11-14T03:33:35.071Z,66.03
2018-11-14T03:36:08.895Z,60.17
2018-11-14T03:38:37.492Z,34.93
2018-11-14T03:41:06.253Z,38.93
2018-11-14T03:43:34.860Z,56.67
2018-11-14T03:46:03.393Z,35.33
2018-11-14T03:48:31.799Z,41.77
2018-11-14T03:51:00.383Z,48.80
2018-11-14T03:53:28.937Z,47.83
2018-11-14T03:55:57.514Z,30.93
2018-11-14T03:58:26.276Z,21.75
2018-11-14T04:00:54.801Z,48.40
2018-11-14T04:03:23.409Z,38.83
2018-11-14T04:05:53.242Z,70.77
2018-11-14T04:08:22.231Z,48.00
2018-11-14T04:10:51.019Z,30.07
2018-11-14T04:13:19.706Z,36.40
2018-11-14T04:15:48.394Z,39.07
2018-11-14T04:18:16.835Z,43.10
2018-11-14T04:20:45.348Z,53.77
2018-11-14T04:23:14.110Z,44.00
2018-11-14T04:25:42.755Z,45.23
2018-11-14T04:28:11.492Z,25.60
2018-11-14T04:30:40.511Z,32.63
2018-11-14T04:33:09.194Z,17.10
2018-11-14T04:35:38.088Z,35.13
2018-11-14T04:38:06.771Z,20.17
2018-11-14T04:40:35.568Z,17.40
2018-11-14T04:43:04.416Z,17.63
2018-11-14T04:45:33.241Z,25.73
2018-11-14T04:48:02.089Z,14.87
2018-11-14T04:50:30.681Z,20.80
2018-11-14T04:52:59.500Z,16.32
2018-11-14T04:55:28.502Z,18.30
2018-11-14T04:57:57.193Z,27.67
2018-11-14T05:00:26.688Z,39.37
2018-11-14T05:02:55.398Z,28.80
2018-11-14T05:05:24.926Z,29.97
2018-11-14T05:07:53.995Z,18.13
2018-11-14T05:10:24.077Z,30.93
2018-11-14T05:17:54.349Z,17.97
2018-11-14T05:20:23.594Z,14.37
2018-11-14T05:22:52.786Z,11.57
2018-11-14T05:25:21.641Z,10.30
2018-11-14T05:27:50.303Z,10.23
2018-11-14T05:30:20.547Z,14.03
2018-11-14T05:32:50.169Z,11.17
2018-11-14T05:35:18.909Z,10.45
2018-11-14T05:37:48.203Z,12.80
2018-11-14T05:40:19.112Z,16.27
2018-11-14T05:42:48.677Z,12.00
2018-11-14T05:45:18.884Z,21.10
2018-11-14T05:47:47.506Z,26.07
2018-11-14T05:50:17.732Z,10.47
2018-11-14T05:52:46.588Z,27.30
2018-11-14T05:55:15.571Z,50.03
2018-11-14T05:57:44.292Z,24.97
2018-11-14T06:00:29.455Z,20.90
2018-11-14T06:02:58.641Z,15.17
2018-11-14T06:05:27.533Z,27.15
2018-11-14T06:07:56.311Z,22.13
2018-11-14T06:10:24.881Z,27.40
2018-11-14T06:12:53.655Z,21.03
2018-11-14T06:16:48.925Z,18.77
2018-11-14T06:19:17.718Z,13.83
2018-11-14T06:21:46.751Z,14.68
2018-11-14T06:24:15.606Z,10.87
2018-11-14T06:26:44.420Z,11.43
2018-11-14T06:29:13.159Z,10.50
2018-11-14T06:31:42.167Z,12.35
2018-11-14T06:34:11.072Z,13.30
2018-11-14T06:36:39.976Z,8.50
2018-11-14T06:39:10.598Z,11.10
2018-11-14T06:41:40.220Z,9.13
2018-11-14T06:44:10.003Z,8.20
2018-11-14T06:46:38.958Z,7.97
2018-11-14T06:49:09.529Z,11.00
2018-11-14T06:51:39.760Z,13.30
2018-11-14T06:54:10.156Z,12.73
2018-11-14T06:56:38.978Z,10.67
2018-11-14T06:59:07.976Z,22.33
2018-11-14T07:01:37.230Z,16.63
2018-11-14T07:04:06.257Z,15.90
2018-11-14T07:13:05.663Z,24.80
2018-11-14T07:15:35.358Z,16.63
2018-11-14T07:18:06.121Z,25.97
2018-11-14T07:20:38.048Z,15.38
2018-11-14T07:23:07.428Z,10.10
2018-11-14T07:25:36.522Z,13.73
2018-11-14T07:28:05.381Z,12.37
2018-11-14T07:30:35.431Z,12.83
2018-11-14T07:33:05.914Z,9.23
2018-11-14T07:35:36.132Z,11.00
2018-11-14T07:38:33.314Z,9.73
2018-11-14T07:41:03.642Z,12.93
2018-11-14T07:43:33.193Z,18.53
2018-11-14T07:46:01.855Z,8.27
2018-11-14T07:48:31.192Z,16.10
2018-11-14T07:51:00.500Z,20.40
2018-11-14T07:53:29.183Z,26.20
2018-11-14T07:55:58.334Z,16.30
2018-11-14T07:58:27.286Z,13.75
2018-11-14T08:00:56.701Z,9.90
2018-11-14T08:03:26.008Z,9.73
2018-11-14T08:05:55.864Z,12.33
2018-11-14T08:08:25.527Z,10.03
2018-11-14T08:10:55.637Z,10.23
2018-11-14T08:13:25.908Z,9.43
2018-11-14T08:15:56.831Z,7.60
2018-11-14T08:18:25.840Z,11.70
2018-11-14T08:20:55.739Z,10.70
2018-11-14T08:23:24.960Z,9.53
2018-11-14T08:25:53.669Z,10.93
2018-11-14T08:28:22.664Z,13.13
2018-11-14T08:30:51.603Z,13.43
2018-11-14T08:33:20.612Z,7.90
2018-11-14T08:35:49.651Z,15.43
2018-11-14T08:38:18.920Z,14.43
2018-11-14T08:40:48.039Z,10.65
2018-11-14T08:43:17.142Z,12.33
2018-11-14T08:45:47.021Z,14.23
2018-11-14T08:48:16.320Z,13.33
2018-11-14T08:50:45.322Z,12.60
2018-11-14T08:53:14.579Z,11.23
2018-11-14T08:55:43.379Z,12.73
2018-11-14T08:58:13.063Z,13.37
2018-11-14T09:00:42.379Z,14.10
2018-11-14T09:03:12.440Z,12.60
2018-11-14T09:05:41.341Z,13.43
2018-11-14T09:08:10.198Z,12.23
2018-11-14T09:10:39.101Z,10.93
2018-11-14T09:13:12.416Z,12.63
2018-11-14T09:15:41.167Z,15.70
2018-11-14T09:18:10.356Z,11.50
2018-11-14T09:20:39.551Z,11.93
2018-11-14T09:23:10.385Z,14.20
2018-11-14T09:25:39.632Z,11.90
2018-11-14T09:28:08.414Z,12.20
2018-11-14T09:30:37.779Z,11.50
2018-11-14T09:33:07.356Z,13.73
2018-11-14T09:35:36.434Z,11.50
2018-11-14T09:38:05.569Z,13.83
2018-11-14T09:40:35.666Z,12.33
2018-11-14T09:43:04.851Z,12.75
2018-11-14T09:45:33.839Z,13.00
2018-11-14T09:48:02.953Z,11.48
2018-11-14T09:50:32.829Z,14.63
2018-11-14T10:19:02.645Z,12.23
2018-11-14T10:21:31.526Z,8.93
2018-11-14T10:24:00.779Z,11.57
2018-11-14T10:26:29.406Z,10.17
2018-11-14T10:28:58.817Z,11.30
2018-11-14T10:31:28.336Z,10.83
2018-11-14T10:33:57.361Z,10.07
2018-11-14T10:36:26.677Z,14.23
2018-11-14T10:38:56.100Z,11.73
2018-11-14T10:41:26.048Z,10.37
2018-11-14T10:43:55.242Z,9.80
2018-11-14T10:46:24.868Z,10.80
2018-11-14T10:48:54.476Z,11.33
2018-11-14T10:51:23.909Z,18.53
2018-11-14T10:53:52.616Z,11.47
2018-11-14T10:56:21.686Z,10.57
2018-11-14T10:58:50.975Z,11.73
2018-11-14T11:01:24.935Z,13.00
2018-11-14T11:04:01.393Z,12.80
2018-11-14T11:06:36.165Z,11.47
2018-11-14T11:09:15.017Z,10.73
2018-11-14T11:11:49.181Z,10.23
2018-11-14T11:14:23.352Z,11.50
2018-11-14T11:17:56.929Z,12.33
2018-11-14T11:20:26.623Z,13.00
2018-11-14T11:22:55.659Z,11.43
2018-11-14T11:25:28.614Z,11.50
2018-11-14T11:28:04.696Z,13.05
2018-11-14T11:30:34.702Z,13.35
2018-11-14T11:33:04.388Z,14.65
2018-11-14T11:35:49.827Z,17.70
2018-11-14T11:38:22.659Z,12.27
2018-11-14T11:40:52.222Z,12.37
2018-11-14T11:43:25.633Z,13.03
2018-11-14T11:46:01.165Z,13.98
2018-11-14T11:48:36.275Z,11.53
2018-11-14T11:51:08.265Z,13.00
2018-11-14T11:54:01.257Z,16.63
2018-11-14T11:56:35.222Z,13.97
2018-11-14T11:59:05.372Z,15.80
2018-11-14T12:33:34.612Z,12.13
2018-11-14T14:18:13.235Z,11.63
2018-11-14T14:27:08.379Z,11.63
2018-11-14T14:29:55.560Z,12.40
2018-11-14T14:32:56.026Z,10.53
2018-11-14T14:35:30.040Z,11.03
2018-11-14T14:37:59.548Z,12.17
2018-11-14T14:40:28.913Z,14.77
2018-11-14T15:43:21.824Z,15.95
2018-11-14T15:46:08.754Z,15.90
2018-11-14T15:48:38.922Z,16.27
2018-11-14T15:51:08.474Z,18.47
2018-11-14T15:53:39.147Z,12.10
2018-11-14T15:56:09.121Z,17.37
2018-11-14T15:58:38.140Z,17.27
2018-11-14T16:01:23.231Z,15.58
2018-11-14T16:19:13.808Z,14.27
2018-11-14T16:21:50.588Z,15.17
2018-11-14T16:24:20.606Z,13.22
2018-11-14T16:26:58.353Z,14.80
2018-11-14T16:29:36.906Z,10.97
2018-11-14T16:44:29.513Z,9.17
2018-11-14T16:47:12.407Z,14.17
2018-11-14T16:49:41.810Z,10.85
2018-11-14T16:52:10.742Z,12.80
2018-11-14T16:54:39.666Z,10.70
2018-11-14T16:57:08.422Z,11.87
2018-11-14T16:59:37.321Z,12.35
2018-11-14T17:02:06.117Z,13.93
2018-11-14T17:07:35.778Z,12.63
2018-11-14T17:10:12.890Z,12.05
2018-11-14T17:12:49.642Z,9.00
2018-11-14T17:15:26.919Z,16.40
2018-11-14T17:17:56.574Z,14.55
2018-11-14T17:20:35.773Z,9.90
2018-11-14T17:23:04.762Z,13.40
2018-11-14T17:25:34.025Z,10.70
2018-11-14T17:28:02.798Z,15.13
2018-11-14T17:30:32.106Z,14.20
2018-11-14T17:33:01.075Z,11.63
2018-11-14T17:35:30.074Z,14.70
2018-11-14T17:37:59.384Z,20.00
2018-11-14T17:40:29.284Z,16.73
2018-11-14T17:43:00.510Z,18.93
2018-11-14T17:45:31.134Z,16.77
2018-11-14T17:48:00.725Z,15.93
2018-11-14T17:50:32.147Z,16.50
2018-11-14T17:53:02.171Z,15.17
2018-11-14T17:55:31.585Z,18.27
2018-11-14T17:58:00.560Z,20.60
2018-11-14T18:00:32.151Z,19.70
2018-11-14T18:03:01.697Z,20.17
2018-11-14T18:05:31.554Z,19.13
2018-11-14T18:08:00.368Z,23.27
2018-11-14T18:10:30.249Z,24.37
2018-11-14T18:12:59.932Z,23.40
2018-11-14T18:15:28.823Z,24.13
2018-11-14T18:17:58.209Z,24.93
2018-11-14T18:20:28.499Z,22.13
2018-11-14T18:22:57.661Z,24.50
2018-11-14T18:25:26.675Z,23.57
2018-11-14T18:28:12.121Z,27.00
2018-11-14T18:30:45.152Z,20.05
2018-11-14T18:36:12.399Z,21.27
2018-11-14T18:39:11.199Z,28.60
2018-11-14T18:41:40.096Z,27.83
2018-11-14T18:47:02.342Z,22.20
2018-11-14T18:49:34.784Z,19.50
2018-11-14T18:52:03.448Z,17.37
2018-11-14T18:54:32.229Z,19.40
2018-11-14T18:57:01.031Z,34.20
2018-11-14T18:59:29.860Z,43.10
2018-11-14T19:01:58.557Z,44.23
2018-11-14T19:04:27.445Z,38.17
2018-11-14T19:06:56.179Z,34.80
2018-11-14T19:09:24.900Z,27.43
2018-11-14T19:11:53.797Z,30.77
2018-11-14T19:14:23.150Z,31.73
2018-11-14T19:16:52.751Z,37.85
2018-11-14T19:19:21.422Z,27.30
2018-11-14T19:21:50.354Z,20.57
2018-11-14T19:24:19.025Z,21.57
2018-11-14T19:26:47.864Z,27.03
2018-11-14T19:29:16.950Z,26.50
2018-11-14T19:31:46.022Z,26.90
2018-11-14T19:34:14.963Z,25.30
2018-11-14T19:36:43.711Z,27.77
2018-11-14T19:39:13.446Z,22.37
2018-11-14T19:41:42.333Z,27.47
2018-11-14T19:44:11.078Z,28.93
2018-11-14T19:46:40.059Z,28.83
2018-11-14T19:49:09.157Z,26.47
2018-11-14T19:51:38.232Z,24.47
2018-11-14T19:54:07.064Z,29.40
2018-11-14T19:56:36.083Z,28.70
2018-11-14T19:59:04.955Z,24.93
2018-11-14T20:01:33.956Z,32.43
2018-11-14T20:04:03.162Z,33.80
2018-11-14T20:06:32.183Z,34.70
2018-11-14T20:09:00.934Z,40.73
2018-11-14T20:11:30.027Z,38.93
2018-11-14T20:13:59.036Z,30.30
2018-11-14T20:16:28.077Z,30.03
2018-11-14T20:18:56.922Z,28.07
2018-11-14T20:21:25.916Z,29.37
2018-11-14T20:23:54.994Z,25.50
2018-11-14T20:26:24.195Z,28.63
2018-11-14T20:28:53.155Z,29.17
2018-11-14T20:31:22.100Z,25.55
2018-11-14T20:33:51.041Z,25.02
2018-11-14T20:36:19.953Z,22.20
2018-11-14T20:38:49.095Z,23.75
2018-11-14T20:41:18.039Z,33.30
2018-11-14T20:43:46.756Z,35.27
2018-11-14T20:46:15.581Z,29.17
2018-11-14T20:48:44.322Z,28.23
2018-11-14T20:51:13.112Z,27.27
2018-11-14T20:53:42.113Z,29.80
2018-11-14T20:56:10.867Z,27.93
2018-11-14T20:58:39.801Z,26.00
2018-11-14T21:01:08.791Z,27.30
2018-11-14T21:03:37.815Z,26.57
2018-11-14T21:06:06.846Z,24.87
2018-11-14T21:08:35.658Z,25.77
2018-11-14T21:11:04.576Z,23.90
2018-11-14T21:13:33.841Z,24.92
2018-11-14T21:16:02.780Z,33.33
2018-11-14T21:18:31.471Z,39.37
2018-11-14T21:21:00.893Z,67.40
2018-11-14T21:23:29.630Z,41.87
2018-11-14T21:25:58.780Z,51.63
2018-11-14T21:28:27.443Z,56.07
2018-11-14T21:30:56.303Z,64.50
2018-11-14T21:33:25.257Z,47.03
2018-11-14T21:35:54.356Z,39.27
2018-11-14T21:38:23.709Z,29.23
2018-11-14T21:40:53.391Z,35.73
2018-11-14T21:43:22.373Z,27.53
2018-11-14T21:45:51.087Z,40.52
2018-11-14T21:48:19.944Z,44.67
2018-11-14T21:50:48.781Z,51.53
2018-11-14T21:53:17.677Z,89.97
2018-11-14T21:55:46.642Z,68.73
2018-11-14T21:58:15.697Z,59.67
2018-11-14T22:00:44.453Z,64.43
2018-11-14T22:03:13.130Z,44.67
2018-11-14T22:05:42.226Z,30.27
2018-11-14T22:08:10.954Z,41.23
2018-11-14T22:10:40.303Z,30.13
2018-11-14T22:13:09.391Z,50.07
2018-11-14T22:15:38.675Z,32.77
2018-11-14T22:18:08.801Z,40.67
2018-11-14T22:20:39.006Z,28.17
2018-11-14T22:23:08.589Z,24.07
2018-11-14T22:25:37.441Z,36.30
2018-11-14T22:28:06.800Z,28.57
2018-11-14T22:30:36.853Z,31.03
2018-11-14T22:33:06.197Z,18.47
2018-11-14T22:35:35.121Z,16.83
2018-11-14T22:38:03.858Z,16.40
2018-11-14T22:40:33.245Z,12.90
2018-11-14T22:43:02.869Z,16.30
2018-11-14T22:45:33.375Z,13.57
2018-11-14T22:48:02.664Z,19.70
2018-11-14T22:50:31.679Z,18.80
2018-11-14T22:53:00.648Z,17.95
2018-11-14T22:55:33.511Z,36.50
2018-11-14T23:00:42.084Z,30.00
2018-11-14T23:03:11.553Z,30.50
2018-11-14T23:05:40.441Z,20.50
2018-11-14T23:08:09.738Z,29.20
2018-11-14T23:10:39.822Z,34.70
2018-11-14T23:13:09.371Z,39.63
2018-11-14T23:15:39.486Z,25.77
2018-11-14T23:18:09.902Z,47.83
2018-11-14T23:20:39.263Z,28.35
2018-11-14T23:23:09.185Z,27.30
2018-11-14T23:25:38.533Z,25.87
2018-11-14T23:28:09.062Z,25.50
2018-11-14T23:30:37.945Z,23.22
2018-11-14T23:33:06.819Z,21.33
2018-11-14T23:35:35.866Z,26.73
2018-11-14T23:38:06.034Z,28.12
2018-11-14T23:40:34.851Z,32.10
2018-11-14T23:43:03.965Z,45.60
2018-11-14T23:45:32.963Z,33.63
2018-11-14T23:48:01.854Z,40.70
2018-11-14T23:50:32.175Z,43.50
2018-11-14T23:53:02.039Z,23.97
2018-11-14T23:55:31.856Z,28.33
2018-11-14T23:58:01.451Z,26.07
